CZPC

Details ICAO CZPC
Name PINCHER CREEK
Region Canada
Timezone America/Edmonton (UTC-7.0)
Plans Departing 4
Arriving 1
Stats Elevation 3,903 ft / 1,190 m (AMSL)
Location 49.520558° -113.997221°
Runways 1
Magnetic Variation 13.766° E
Sunrise 2017-12-14 15:26:38 UTC / 2017-12-14 08:26:38 Local
Sunset 2017-12-14 23:37:48 UTC / 2017-12-14 16:37:48 Local
Advertisement - Login to hide

Runways

ID Width Length Bearing (true) Bearing (mag) Surface Threshold Offset Overrun Length
07 100 ft / 30 m 6,581 ft / 2,006 m 89.99° 76.22° Asphalt 400 ft / 122 m 0 ft / 0 m
25 100 ft / 30 m 6,581 ft / 2,006 m 270.01° 256.24° Asphalt 1,200 ft / 366 m 0 ft / 0 m

Map

Weather


0- 5 10 15 20 25 30 35+ Temperature / ° C

Clouds and Precipitation
Forecast for 2017-12-14 18:00 UTC. Updated 2 minutes ago

Ground ~20,000 ft ~40,000 ft Winds

METAR

CZPC 141300Z AUTO 26011KT 9SM BKN180 BKN200 M03/M07 A3031 RMK SLP315

TAF

Not found

Frequencies

Unicom 123.20 MHz CTAF
Approach 132.75 MHz EDMONTON CNTR
Warning: Do not use this data for real-world aviation or navigation. No guarantee of current accuracy is given.